sensor_id;sensor_type;location;lat;lon;timestamp;P1;durP1;ratioP1;P2;durP2;ratioP2
50126;SDS011;36024;47.974;16.398;2022-12-10T15:32:24;24.03;;;16.30;;
50126;SDS011;36024;47.974;16.398;2022-12-10T15:34:54;22.90;;;16.50;;
50126;SDS011;36024;47.974;16.398;2022-12-10T15:37:32;23.60;;;16.63;;
50126;SDS011;36024;47.974;16.398;2022-12-10T15:40:00;22.07;;;16.10;;
50126;SDS011;36024;47.974;16.398;2022-12-10T15:42:35;24.33;;;16.80;;
50126;SDS011;36024;47.974;16.398;2022-12-10T15:45:12;23.07;;;16.20;;
50126;SDS011;36024;47.974;16.398;2022-12-10T15:47:46;25.70;;;17.23;;
50126;SDS011;36024;47.974;16.398;2022-12-10T15:50:13;22.87;;;15.80;;
50126;SDS011;36024;47.974;16.398;2022-12-10T15:52:40;23.20;;;16.47;;
50126;SDS011;36024;47.974;16.398;2022-12-10T15:55:07;26.67;;;17.77;;
50126;SDS011;36024;47.974;16.398;2022-12-10T15:57:36;24.60;;;17.23;;
50126;SDS011;36024;47.974;16.398;2022-12-10T16:00:07;26.20;;;16.60;;
50126;SDS011;36024;47.974;16.398;2022-12-10T16:07:50;24.63;;;17.43;;
50126;SDS011;36024;47.974;16.398;2022-12-10T16:10:19;24.87;;;17.77;;
50126;SDS011;36024;47.974;16.398;2022-12-10T16:12:47;25.43;;;17.27;;
50126;SDS011;36024;47.974;16.398;2022-12-10T16:15:23;25.97;;;17.47;;
50126;SDS011;36024;47.974;16.398;2022-12-10T16:17:53;26.40;;;17.80;;
50126;SDS011;36024;47.974;16.398;2022-12-10T16:20:22;26.43;;;17.43;;
50126;SDS011;36024;47.974;16.398;2022-12-10T16:22:55;26.50;;;17.67;;
50126;SDS011;36024;47.974;16.398;2022-12-10T16:25:24;26.37;;;18.27;;
50126;SDS011;36024;47.974;16.398;2022-12-10T16:27:56;26.47;;;18.70;;
50126;SDS011;36024;47.974;16.398;2022-12-10T16:30:35;28.43;;;18.70;;
50126;SDS011;36024;47.974;16.398;2022-12-10T16:33:12;25.93;;;17.83;;
50126;SDS011;36024;47.974;16.398;2022-12-10T16:35:41;26.20;;;17.40;;
50126;SDS011;36024;47.974;16.398;2022-12-10T16:38:08;26.70;;;17.57;;
50126;SDS011;36024;47.974;16.398;2022-12-10T16:40:38;27.67;;;18.60;;
50126;SDS011;36024;47.974;16.398;2022-12-10T16:43:06;27.17;;;18.33;;
50126;SDS011;36024;47.974;16.398;2022-12-10T16:45:40;27.97;;;18.07;;
50126;SDS011;36024;47.974;16.398;2022-12-10T16:48:08;27.00;;;17.43;;
50126;SDS011;36024;47.974;16.398;2022-12-10T16:50:37;28.80;;;18.53;;
50126;SDS011;36024;47.974;16.398;2022-12-10T16:53:09;26.47;;;17.77;;
50126;SDS011;36024;47.974;16.398;2022-12-10T16:55:41;27.07;;;17.50;;
50126;SDS011;36024;47.974;16.398;2022-12-10T16:58:09;25.07;;;17.70;;
50126;SDS011;36024;47.974;16.398;2022-12-10T17:00:37;26.30;;;17.50;;
50126;SDS011;36024;47.974;16.398;2022-12-10T17:03:05;24.10;;;17.33;;
50126;SDS011;36024;47.974;16.398;2022-12-10T17:05:54;27.57;;;18.40;;
50126;SDS011;36024;47.974;16.398;2022-12-10T17:08:47;26.67;;;17.93;;
50126;SDS011;36024;47.974;16.398;2022-12-10T17:11:44;29.13;;;19.23;;
50126;SDS011;36024;47.974;16.398;2022-12-10T17:17:24;27.77;;;18.87;;
50126;SDS011;36024;47.974;16.398;2022-12-10T17:19:53;24.13;;;17.13;;
50126;SDS011;36024;47.974;16.398;2022-12-10T17:22:28;27.10;;;18.43;;
50126;SDS011;36024;47.974;16.398;2022-12-10T17:24:58;27.47;;;18.90;;
50126;SDS011;36024;47.974;16.398;2022-12-10T19:03:23;38.07;;;22.23;;
